Time;durP1;ratioP1;P1;durP2;ratioP2;P2;SDS_P1;SDS_P2;PMS_P1;PMS_P2;Temp;Humidity;BMP_temperature;BMP_pressure;BME280_temperature;BME280_humidity;BME280_pressure;Samples;Min_cycle;Max_cycle;Signal;HPM_P1;HPM_P2
2022/09/12 00:04:09;;;;;;;8.97;7.77;;;;;13.40;101145.00;;;;13105856;22;20191;-70
2022/09/12 00:09:12;;;;;;;12.00;7.97;;;;;13.30;101145.00;;;;13100377;22;20182;-70
2022/09/12 00:14:16;;;;;;;9.10;8.03;;;;;13.30;101145.00;;;;13106785;22;20187;-70
2022/09/12 00:19:17;;;;;;;10.07;7.70;;;;;13.20;101132.00;;;;13106346;22;20170;-71
2022/09/12 00:24:19;;;;;;;12.03;9.27;;;;;13.10;101130.00;;;;13106613;22;20258;-71
2022/09/12 00:29:21;;;;;;;10.23;9.13;;;;;13.10;101125.00;;;;13106177;22;20171;-71
2022/09/12 00:34:22;;;;;;;12.43;9.90;;;;;13.10;101133.00;;;;13130729;22;20171;-71
2022/09/12 00:39:24;;;;;;;11.13;9.10;;;;;13.00;101129.00;;;;13182652;22;20242;-71
2022/09/12 00:44:25;;;;;;;12.33;9.63;;;;;13.00;101123.00;;;;13107398;22;20627;-71
2022/09/12 00:49:56;;;;;;;10.83;9.80;;;;;13.00;101125.00;;;;13105015;22;20257;-71
2022/09/12 00:55:11;;;;;;;15.00;9.70;;;;;12.90;101106.00;;;;13119617;22;20424;-71
2022/09/12 01:00:15;;;;;;;15.37;9.90;;;;;12.90;101108.00;;;;13099846;22;20163;-70
2022/09/12 01:05:17;;;;;;;12.97;9.80;;;;;12.90;101108.00;;;;13152781;22;20374;-72
2022/09/12 01:10:18;;;;;;;10.73;9.63;;;;;12.80;101093.00;;;;13106250;22;20246;-72
2022/09/12 01:15:20;;;;;;;12.73;10.30;;;;;12.70;101095.00;;;;13106420;22;20202;-72
2022/09/12 01:20:40;;;;;;;14.30;9.83;;;;;12.70;101099.00;;;;13105099;22;20176;-72
2022/09/12 01:25:47;;;;;;;10.77;9.67;;;;;12.70;101083.00;;;;13128037;22;21072;-72
2022/09/12 01:30:59;;;;;;;12.30;10.57;;;;;12.60;101082.00;;;;13101758;22;20171;-71
2022/09/12 01:36:19;;;;;;;11.53;9.07;;;;;12.60;101078.00;;;;13151391;22;20889;-72
2022/09/12 01:42:05;;;;;;;14.87;10.30;;;;;12.50;101070.00;;;;13126769;22;20208;-71
2022/09/12 01:47:09;;;;;;;11.37;10.00;;;;;12.40;101061.00;;;;13092283;22;20170;-71
2022/09/12 01:52:27;;;;;;;11.83;10.03;;;;;12.40;101061.00;;;;13129272;22;20243;-71
2022/09/12 01:57:35;;;;;;;16.63;11.50;;;;;12.40;101055.00;;;;13156275;22;20265;-72
2022/09/12 02:02:40;;;;;;;17.50;11.37;;;;;12.40;101046.00;;;;13157222;22;20615;-71
2022/09/12 02:07:46;;;;;;;14.93;11.23;;;;;12.40;101048.00;;;;13083322;22;20186;-71
2022/09/12 02:13:02;;;;;;;15.33;10.63;;;;;12.40;101045.00;;;;13079551;22;20190;-71
2022/09/12 02:18:05;;;;;;;14.73;10.57;;;;;12.30;101044.00;;;;13129429;22;20558;-71
2022/09/12 02:23:13;;;;;;;10.50;9.27;;;;;12.30;101042.00;;;;13107268;22;20174;-72
2022/09/12 02:28:20;;;;;;;11.43;10.23;;;;;12.30;101039.00;;;;13156349;22;20250;-72
2022/09/12 02:33:47;;;;;;;11.83;10.13;;;;;12.30;101032.00;;;;13132894;22;20223;-72
2022/09/12 02:38:49;;;;;;;14.60;11.13;;;;;12.30;101034.00;;;;13105425;22;20190;-71
2022/09/12 02:43:51;;;;;;;17.90;11.43;;;;;12.30;101034.00;;;;13129108;22;20163;-72
2022/09/12 02:48:53;;;;;;;13.10;10.83;;;;;12.20;101025.00;;;;13106797;22;20644;-72
2022/09/12 02:53:55;;;;;;;14.93;10.73;;;;;12.20;101027.00;;;;13156223;22;20238;-71
2022/09/12 02:59:04;;;;;;;14.83;11.50;;;;;12.10;101024.00;;;;13108154;22;20195;-72
2022/09/12 03:04:20;;;;;;;13.17;10.43;;;;;12.00;101011.00;;;;13127580;22;20155;-72
2022/09/12 03:09:40;;;;;;;15.70;10.97;;;;;12.00;101022.00;;;;13103375;22;20177;-71
2022/09/12 03:15:02;;;;;;;19.23;11.33;;;;;11.90;101007.00;;;;13107464;22;20285;-72
2022/09/12 03:20:26;;;;;;;15.00;11.80;;;;;11.90;101007.00;;;;13056065;22;20252;-71
2022/09/12 03:25:35;;;;;;;18.30;12.87;;;;;11.90;101008.00;;;;13105495;22;20178;-71
2022/09/12 03:30:41;;;;;;;19.10;12.90;;;;;11.90;101002.00;;;;13102623;22;20601;-71
2022/09/12 03:35:44;;;;;;;15.93;12.23;;;;;11.90;101006.00;;;;13106284;22;20198;-71
2022/09/12 03:40:45;;;;;;;20.73;12.70;;;;;11.90;101001.00;;;;13154692;22;20478;-71
2022/09/12 03:45:51;;;;;;;16.33;12.47;;;;;11.80;101004.00;;;;13154165;22;20169;-71
2022/09/12 03:50:52;;;;;;;26.33;14.40;;;;;11.80;100997.00;;;;13127612;22;20391;-71
2022/09/12 03:55:53;;;;;;;22.73;14.67;;;;;11.80;100995.00;;;;13127970;22;20891;-71
2022/09/12 04:00:54;;;;;;;20.23;13.30;;;;;11.80;100990.00;;;;13153608;22;20166;-71
2022/09/12 04:05:56;;;;;;;20.90;13.93;;;;;11.80;100999.00;;;;13107499;22;20190;-72
2022/09/12 04:11:03;;;;;;;20.03;14.33;;;;;11.80;100991.00;;;;13102884;22;20163;-71
2022/09/12 04:16:05;;;;;;;19.43;14.80;;;;;11.80;100989.00;;;;13151523;22;20329;-71
2022/09/12 04:21:10;;;;;;;28.20;14.47;;;;;11.80;100992.00;;;;13106045;22;20174;-71
2022/09/12 04:26:12;;;;;;;17.90;14.20;;;;;11.70;100990.00;;;;13105363;22;20175;-71
2022/09/12 04:31:21;;;;;;;21.30;13.17;;;;;11.70;100978.00;;;;13182056;22;20163;-71
2022/09/12 04:36:24;;;;;;;21.00;15.53;;;;;11.70;100983.00;;;;13152066;22;20187;-71
2022/09/12 04:41:29;;;;;;;23.40;14.37;;;;;11.70;100988.00;;;;13125590;22;20163;-72
2022/09/12 04:46:34;;;;;;;19.83;14.30;;;;;11.70;100988.00;;;;13074343;22;20175;-72
2022/09/12 04:51:37;;;;;;;20.60;15.53;;;;;11.70;100973.00;;;;13151409;22;20167;-72
2022/09/12 04:56:41;;;;;;;23.30;15.43;;;;;11.70;100984.00;;;;13103458;22;20187;-72
2022/09/12 05:01:42;;;;;;;23.63;14.80;;;;;11.70;100984.00;;;;13071710;22;20297;-72
2022/09/12 05:06:46;;;;;;;24.93;16.30;;;;;11.60;100984.00;;;;13167121;22;20246;-72
2022/09/12 05:11:47;;;;;;;21.07;14.87;;;;;11.70;100993.00;;;;13153728;22;20949;-72
2022/09/12 05:17:05;;;;;;;20.70;15.30;;;;;11.70;100995.00;;;;13080506;22;20201;-72
2022/09/12 05:22:06;;;;;;;22.47;14.77;;;;;11.70;100994.00;;;;13077172;22;20177;-72
2022/09/12 05:27:08;;;;;;;24.50;18.03;;;;;11.70;100993.00;;;;13125355;22;20162;-72
2022/09/12 05:32:11;;;;;;;25.33;17.23;;;;;11.80;101001.00;;;;13074202;22;20326;-72
2022/09/12 05:37:12;;;;;;;26.60;18.63;;;;;11.80;100992.00;;;;13129385;22;20254;-72
2022/09/12 05:42:13;;;;;;;29.97;19.93;;;;;12.00;101002.00;;;;13100588;22;20186;-72
2022/09/12 05:47:16;;;;;;;39.17;24.13;;;;;12.10;101008.00;;;;13100871;22;20177;-72
2022/09/12 05:52:17;;;;;;;40.40;23.43;;;;;12.40;101009.00;;;;13105003;22;20174;-72
2022/09/12 05:57:18;;;;;;;30.90;21.77;;;;;12.40;101008.00;;;;13124406;22;20236;-72
2022/09/12 06:02:19;;;;;;;29.63;21.27;;;;;12.50;101007.00;;;;13101324;22;20894;-72
2022/09/12 06:07:21;;;;;;;35.67;22.03;;;;;12.60;101002.00;;;;13151053;22;20867;-72
2022/09/12 06:12:22;;;;;;;32.37;21.87;;;;;12.80;101010.00;;;;13129499;22;20212;-73
2022/09/12 06:17:23;;;;;;;34.93;22.57;;;;;13.30;100999.00;;;;13149921;22;20236;-73
2022/09/12 06:22:24;;;;;;;31.27;22.47;;;;;13.90;101002.00;;;;13100062;22;20167;-73
2022/09/12 06:27:26;;;;;;;33.30;22.40;;;;;14.40;101006.00;;;;13102975;22;20246;-73
2022/09/12 06:32:29;;;;;;;33.00;21.57;;;;;15.00;100992.00;;;;13153344;22;20248;-73
2022/09/12 06:37:31;;;;;;;25.43;18.90;;;;;15.60;100991.00;;;;13154103;22;20187;-73
2022/09/12 06:42:32;;;;;;;19.38;16.95;;;;;16.20;100986.00;;;;13128931;22;20171;-73
2022/09/12 06:47:34;;;;;;;17.77;15.07;;;;;16.50;101000.00;;;;13081540;22;20174;-73
2022/09/12 06:52:35;;;;;;;14.93;13.27;;;;;16.70;100995.00;;;;13131200;22;20197;-73
2022/09/12 06:57:37;;;;;;;16.25;13.45;;;;;17.00;100997.00;;;;13081357;22;20190;-73
2022/09/12 07:02:38;;;;;;;14.07;11.43;;;;;17.50;100994.00;;;;13106690;22;20171;-73
2022/09/12 07:07:40;;;;;;;11.73;10.52;;;;;17.90;100997.00;;;;13131631;22;20837;-73
2022/09/12 07:12:41;;;;;;;12.98;10.85;;;;;18.00;100998.00;;;;13182285;22;20213;-73
2022/09/12 07:17:42;;;;;;;11.10;9.88;;;;;18.10;101004.00;;;;13105501;22;20193;-74
2022/09/12 07:22:44;;;;;;;14.32;10.77;;;;;18.20;101006.00;;;;13154222;22;20533;-73
2022/09/12 07:27:45;;;;;;;13.35;10.27;;;;;18.50;100999.00;;;;13105787;22;20174;-73
2022/09/12 07:32:52;;;;;;;10.20;9.20;;;;;18.80;100985.00;;;;13106966;22;20170;-73
2022/09/12 07:37:55;;;;;;;12.18;9.10;;;;;19.20;100984.00;;;;13081371;22;20840;-74
2022/09/12 07:42:57;;;;;;;10.70;7.80;;;;;19.50;100990.00;;;;13079636;22;20167;-73
2022/09/12 07:47:59;;;;;;;8.32;7.00;;;;;19.90;101002.00;;;;13104651;22;20737;-73
2022/09/12 07:53:01;;;;;;;8.40;7.50;;;;;20.20;100999.00;;;;13153093;22;20162;-74
2022/09/12 07:58:03;;;;;;;6.60;5.88;;;;;20.60;100997.00;;;;13130950;22;20214;-74
2022/09/12 08:03:06;;;;;;;5.95;4.75;;;;;20.90;101005.00;;;;13154964;22;20159;-74
2022/09/12 08:08:08;;;;;;;7.93;5.13;;;;;21.00;101023.00;;;;13127507;22;20181;-73
2022/09/12 08:13:09;;;;;;;7.55;4.20;;;;;21.00;101012.00;;;;13103798;22;20187;-74
2022/09/12 08:18:11;;;;;;;6.88;4.50;;;;;21.10;101016.00;;;;13102873;22;20256;-74
2022/09/12 08:23:13;;;;;;;5.20;4.32;;;;;21.40;101012.00;;;;13154351;22;20182;-74
2022/09/12 08:28:14;;;;;;;4.13;3.35;;;;;21.80;101007.00;;;;13181534;22;20167;-74
2022/09/12 08:33:15;;;;;;;6.05;4.20;;;;;22.30;101010.00;;;;13105645;22;20299;-74
2022/09/12 08:38:18;;;;;;;5.82;3.15;;;;;22.60;101018.00;;;;13079732;22;20221;-74
2022/09/12 08:43:22;;;;;;;8.93;2.55;;;;;23.00;101005.00;;;;13130214;22;20254;-74
2022/09/12 08:48:23;;;;;;;3.47;2.53;;;;;23.20;101002.00;;;;13106150;22;20171;-74
2022/09/12 08:53:26;;;;;;;4.63;2.90;;;;;23.60;101007.00;;;;13105680;22;20249;-74
2022/09/12 08:58:28;;;;;;;5.15;2.90;;;;;23.30;101008.00;;;;13104046;22;20664;-74
2022/09/12 09:04:13;;;;;;;4.82;2.25;;;;;23.30;101008.00;;;;13106689;22;20528;-74
2022/09/12 09:09:49;;;;;;;3.13;2.35;;;;;24.00;101006.00;;;;12973430;22;20171;-74
2022/09/12 09:15:00;;;;;;;4.30;2.38;;;;;24.90;100995.00;;;;13057038;22;20529;-74
2022/09/12 09:20:21;;;;;;;3.30;2.10;;;;;25.50;100985.00;;;;13104687;22;20174;-74
2022/09/12 09:25:28;;;;;;;2.50;1.70;;;;;25.80;100981.00;;;;13178179;22;20178;-74
2022/09/12 09:30:30;;;;;;;2.88;2.55;;;;;26.20;100970.00;;;;13105484;22;20198;-74
2022/09/12 09:35:44;;;;;;;2.33;1.90;;;;;26.80;100970.00;;;;13179967;22;20766;-75
2022/09/12 09:41:02;;;;;;;2.35;1.80;;;;;27.10;100972.00;;;;13130688;22;20597;-74
2022/09/12 09:46:04;;;;;;;2.60;2.03;;;;;27.30;100964.00;;;;13126580;22;20237;-74
2022/09/12 09:51:08;;;;;;;6.20;2.00;;;;;27.30;100947.00;;;;13149459;22;20163;-74
2022/09/12 09:56:28;;;;;;;2.38;1.90;;;;;27.50;100947.00;;;;13129856;22;20200;-74
2022/09/12 10:01:29;;;;;;;2.15;1.73;;;;;27.50;100941.00;;;;13153044;22;20158;-74
2022/09/12 10:06:36;;;;;;;4.40;2.13;;;;;27.80;100932.00;;;;13131046;22;20178;-74
2022/09/12 10:11:38;;;;;;;1.60;1.40;;;;;28.00;100917.00;;;;13104688;22;20174;-75
2022/09/12 10:16:53;;;;;;;2.03;1.70;;;;;28.20;100909.00;;;;13106630;22;20239;-74
2022/09/12 10:21:55;;;;;;;1.95;1.77;;;;;28.40;100899.00;;;;13102555;22;20659;-75
2022/09/12 10:27:07;;;;;;;1.75;1.60;;;;;28.80;100889.00;;;;13152287;22;20415;-74
2022/09/12 10:32:11;;;;;;;1.88;1.67;;;;;29.10;100889.00;;;;13153856;22;20166;-75
2022/09/12 10:37:27;;;;;;;2.00;1.80;;;;;29.40;100880.00;;;;13153932;22;20187;-75
2022/09/12 10:42:47;;;;;;;1.80;1.70;;;;;29.50;100876.00;;;;13152452;22;20243;-75
2022/09/12 10:47:48;;;;;;;2.50;1.42;;;;;29.60;100871.00;;;;13080237;22;20167;-75
2022/09/12 10:52:50;;;;;;;1.35;1.13;;;;;29.80;100870.00;;;;13128562;22;20163;-75
2022/09/12 10:58:15;;;;;;;1.75;1.52;;;;;30.20;100863.00;;;;13153581;22;20410;-75
2022/09/12 11:03:38;;;;;;;3.63;1.67;;;;;30.50;100861.00;;;;13107469;22;20167;-75
2022/09/12 11:09:07;;;;;;;2.78;1.55;;;;;30.70;100865.00;;;;13130966;22;20174;-75
2022/09/12 11:14:18;;;;;;;3.13;1.80;;;;;30.70;100857.00;;;;13106323;22;20709;-75
2022/09/12 11:19:49;;;;;;;2.70;1.77;;;;;30.70;100857.00;;;;13106342;22;20860;-75
2022/09/12 11:25:09;;;;;;;2.28;1.40;;;;;31.00;100844.00;;;;13128094;22;20167;-75
2022/09/12 11:30:14;;;;;;;2.42;1.50;;;;;31.10;100825.00;;;;13105812;22;20564;-75
2022/09/12 11:35:28;;;;;;;2.88;1.40;;;;;31.10;100833.00;;;;13080171;22;20194;-75
2022/09/12 11:40:55;;;;;;;1.50;1.40;;;;;30.90;100830.00;;;;13153261;22;20625;-75
2022/09/12 11:46:05;;;;;;;1.42;1.23;;;;;31.00;100827.00;;;;13131424;22;20178;-75
2022/09/12 11:51:17;;;;;;;1.95;1.30;;;;;31.20;100832.00;;;;13151857;22;20766;-75
2022/09/12 11:56:18;;;;;;;5.13;1.50;;;;;31.40;100834.00;;;;13105600;22;20190;-75
2022/09/12 12:01:25;;;;;;;1.92;1.70;;;;;31.50;100829.00;;;;13106254;22;20177;-75
2022/09/12 12:06:32;;;;;;;1.55;1.45;;;;;31.50;100822.00;;;;13154870;22;20162;-76
2022/09/12 12:11:39;;;;;;;2.83;1.45;;;;;31.40;100816.00;;;;13180826;22;20246;-76
2022/09/12 12:16:40;;;;;;;1.90;1.15;;;;;31.20;100807.00;;;;13052814;22;20217;-75
2022/09/12 12:21:43;;;;;;;2.28;1.60;;;;;31.30;100807.00;;;;13154035;22;20238;-75
2022/09/12 12:26:59;;;;;;;2.97;1.20;;;;;31.40;100800.00;;;;13153310;22;20221;-75
2022/09/12 12:32:03;;;;;;;2.38;1.50;;;;;31.50;100797.00;;;;13152960;22;20175;-75
2022/09/12 12:37:20;;;;;;;2.40;1.55;;;;;31.60;100791.00;;;;13153355;22;20621;-75
2022/09/12 12:42:33;;;;;;;1.95;1.45;;;;;31.70;100789.00;;;;13127121;22;20166;-75
2022/09/12 12:47:34;;;;;;;2.00;1.58;;;;;31.60;100788.00;;;;13153801;22;20159;-75
2022/09/12 12:53:03;;;;;;;4.03;1.50;;;;;31.70;100791.00;;;;13104726;22;20186;-75
2022/09/12 12:58:07;;;;;;;2.85;1.42;;;;;31.50;100787.00;;;;13116290;22;20194;-75
2022/09/12 13:03:24;;;;;;;2.97;1.42;;;;;31.30;100781.00;;;;13079605;22;20167;-75
2022/09/12 13:08:32;;;;;;;2.40;1.40;;;;;30.60;100780.00;;;;13125558;22;20154;-75
2022/09/12 13:13:36;;;;;;;2.95;1.50;;;;;30.80;100769.00;;;;13128015;22;20206;-75
2022/09/12 13:18:45;;;;;;;2.50;1.70;;;;;31.40;100759.00;;;;13127788;22;20217;-75
2022/09/12 13:24:14;;;;;;;3.83;1.73;;;;;31.80;100743.00;;;;13153006;22;20159;-75
2022/09/12 13:29:18;;;;;;;1.83;1.15;;;;;32.40;100733.00;;;;13040440;22;20228;-75
2022/09/12 13:34:27;;;;;;;2.47;1.13;;;;;33.90;100728.00;;;;13131457;22;20167;-75
2022/09/12 13:39:36;;;;;;;2.78;1.45;;;;;34.10;100735.00;;;;13126557;22;20190;-75
2022/09/12 13:44:49;;;;;;;2.35;1.48;;;;;34.70;100718.00;;;;13081001;22;20647;-75
2022/09/12 13:49:51;;;;;;;2.33;1.70;;;;;35.50;100720.00;;;;13127529;22;20213;-75
2022/09/12 13:54:57;;;;;;;1.63;1.20;;;;;35.80;100712.00;;;;13082226;22;20194;-75
2022/09/12 14:00:00;;;;;;;3.05;1.58;;;;;34.90;100721.00;;;;13133983;22;20178;-75
2022/09/12 14:05:18;;;;;;;3.25;1.60;;;;;34.20;100722.00;;;;13157082;22;20163;-75
2022/09/12 14:10:27;;;;;;;4.70;1.95;;;;;33.80;100704.00;;;;13081517;22;20177;-75
2022/09/12 14:15:31;;;;;;;3.25;1.55;;;;;33.20;100698.00;;;;13180618;22;20775;-74
2022/09/12 14:20:36;;;;;;;3.47;1.60;;;;;32.50;100691.00;;;;13128255;22;20163;-74
2022/09/12 14:25:40;;;;;;;5.13;2.03;;;;;31.00;100699.00;;;;13182111;22;20163;-74
2022/09/12 14:31:06;;;;;;;2.67;1.85;;;;;29.60;100690.00;;;;13154604;22;20781;-74
2022/09/12 14:36:34;;;;;;;5.32;1.50;;;;;28.90;100679.00;;;;13151455;22;20198;-74
2022/09/12 14:41:39;;;;;;;2.22;1.65;;;;;28.50;100678.00;;;;13092111;22;20171;-74
2022/09/12 14:46:42;;;;;;;3.90;1.35;;;;;28.10;100674.00;;;;13133451;22;20266;-74
2022/09/12 14:51:56;;;;;;;2.47;1.55;;;;;27.90;100669.00;;;;13077070;22;20617;-74
2022/09/12 14:57:03;;;;;;;4.45;1.50;;;;;28.20;100660.00;;;;13180544;22;20353;-74
2022/09/12 15:02:30;;;;;;;3.75;1.50;;;;;27.50;100655.00;;;;13105496;22;20621;-74
2022/09/12 15:07:59;;;;;;;2.42;1.98;;;;;27.60;100660.00;;;;13124875;22;20182;-74
2022/09/12 15:13:13;;;;;;;3.80;1.85;;;;;27.00;100643.00;;;;13103685;22;20653;-75
2022/09/12 15:18:15;;;;;;;4.03;2.00;;;;;26.70;100636.00;;;;13152195;22;20227;-74
2022/09/12 15:23:43;;;;;;;1.65;1.45;;;;;26.50;100628.00;;;;13078972;22;20190;-74
2022/09/12 15:28:45;;;;;;;2.15;1.40;;;;;26.20;100634.00;;;;13125610;22;20159;-74
2022/09/12 15:33:46;;;;;;;5.05;1.25;;;;;26.10;100631.00;;;;13150356;22;20188;-74
2022/09/12 15:38:48;;;;;;;2.08;1.20;;;;;25.90;100621.00;;;;13179814;22;20231;-74
2022/09/12 15:43:49;;;;;;;2.72;1.27;;;;;25.80;100620.00;;;;13127624;22;20284;-74
2022/09/12 15:48:51;;;;;;;4.47;1.40;;;;;25.60;100617.00;;;;13181777;22;20171;-74
2022/09/12 15:53:52;;;;;;;2.35;1.20;;;;;25.50;100621.00;;;;13126611;22;20233;-74
2022/09/12 15:58:53;;;;;;;1.40;1.23;;;;;25.40;100605.00;;;;13152518;22;20194;-74
2022/09/12 16:04:02;;;;;;;1.45;0.88;;;;;25.30;100598.00;;;;13133504;22;20502;-74
2022/09/12 16:09:03;;;;;;;2.75;0.90;;;;;25.20;100604.00;;;;13151913;22;20167;-74
2022/09/12 16:14:04;;;;;;;2.95;1.15;;;;;25.10;100588.00;;;;13106325;22;20637;-74
2022/09/12 16:19:06;;;;;;;1.48;1.08;;;;;24.80;100589.00;;;;13128059;22;20633;-74
2022/09/12 16:24:08;;;;;;;1.98;1.00;;;;;24.60;100574.00;;;;13080833;22;20614;-74
2022/09/12 16:29:12;;;;;;;1.33;1.02;;;;;24.70;100566.00;;;;13105759;22;20216;-74
2022/09/12 16:34:13;;;;;;;2.33;1.02;;;;;24.80;100565.00;;;;13081103;22;20171;-74
2022/09/12 16:39:14;;;;;;;1.52;0.90;;;;;24.90;100556.00;;;;13181764;22;20183;-74
2022/09/12 16:44:15;;;;;;;4.43;1.27;;;;;24.90;100541.00;;;;13154622;22;20235;-74
2022/09/12 16:49:16;;;;;;;3.58;0.93;;;;;24.70;100544.00;;;;13107146;22;20299;-74
2022/09/12 16:54:18;;;;;;;2.15;1.10;;;;;24.70;100542.00;;;;13180435;22;20211;-73
2022/09/12 16:59:19;;;;;;;2.72;1.13;;;;;24.70;100540.00;;;;13127383;22;20190;-74
2022/09/12 17:04:20;;;;;;;1.20;1.08;;;;;24.80;100541.00;;;;13154872;22;20633;-74
2022/09/12 17:09:26;;;;;;;1.52;0.90;;;;;24.60;100539.00;;;;13079531;22;20254;-74
2022/09/12 17:14:28;;;;;;;4.47;1.42;;;;;24.40;100527.00;;;;13104191;22;20190;-74
2022/09/12 17:19:29;;;;;;;2.55;1.17;;;;;24.20;100521.00;;;;13152077;22;20334;-74
2022/09/12 17:24:31;;;;;;;4.38;1.30;;;;;24.10;100520.00;;;;13179810;22;20162;-73
2022/09/12 17:29:34;;;;;;;3.72;1.23;;;;;23.90;100521.00;;;;13151172;22;20163;-73
2022/09/12 17:34:35;;;;;;;1.25;1.13;;;;;23.60;100523.00;;;;13152575;22;20165;-73
2022/09/12 17:39:37;;;;;;;1.23;1.05;;;;;23.40;100518.00;;;;13180317;22;20236;-74
2022/09/12 17:44:38;;;;;;;4.07;1.00;;;;;23.10;100531.00;;;;13152646;22;20754;-73
2022/09/12 17:49:39;;;;;;;5.15;1.42;;;;;22.90;100545.00;;;;13104754;22;20204;-73
2022/09/12 17:54:41;;;;;;;2.47;1.35;;;;;22.50;100546.00;;;;13078039;22;20231;-73
2022/09/12 17:59:42;;;;;;;2.72;2.10;;;;;22.20;100542.00;;;;13104768;22;20190;-74
2022/09/12 18:04:45;;;;;;;2.20;1.73;;;;;21.90;100539.00;;;;13179857;22;20242;-73
2022/09/12 18:09:46;;;;;;;2.65;1.73;;;;;21.60;100543.00;;;;13103834;22;20175;-73
2022/09/12 18:14:47;;;;;;;5.72;2.00;;;;;21.30;100550.00;;;;13151749;22;20699;-73
2022/09/12 18:19:50;;;;;;;4.40;1.35;;;;;21.10;100539.00;;;;13129593;22;20220;-73
2022/09/12 18:24:54;;;;;;;2.38;1.50;;;;;20.80;100538.00;;;;13102800;22;20237;-73
2022/09/12 18:29:55;;;;;;;2.47;1.33;;;;;20.60;100545.00;;;;13126007;22;20376;-73
2022/09/12 18:35:16;;;;;;;1.45;1.35;;;;;20.50;100539.00;;;;13129576;22;20155;-73
2022/09/12 18:40:18;;;;;;;3.42;1.40;;;;;20.30;100540.00;;;;13132904;22;20523;-73
2022/09/12 18:45:19;;;;;;;1.90;1.15;;;;;20.20;100541.00;;;;13129026;22;20163;-73
2022/09/12 18:50:21;;;;;;;2.28;1.25;;;;;20.00;100549.00;;;;13152744;22;20171;-73
2022/09/12 18:55:23;;;;;;;1.95;1.40;;;;;19.90;100534.00;;;;13081276;22;20171;-73
2022/09/12 19:00:24;;;;;;;3.13;1.70;;;;;19.70;100538.00;;;;13155786;22;20158;-73
2022/09/12 19:05:27;;;;;;;1.90;1.58;;;;;19.60;100541.00;;;;13155601;22;20158;-73
2022/09/12 19:10:28;;;;;;;4.25;1.80;;;;;19.50;100553.00;;;;13182382;22;20167;-73
2022/09/12 19:15:29;;;;;;;2.50;2.30;;;;;19.40;100564.00;;;;13081773;22;20201;-73
2022/09/12 19:20:33;;;;;;;3.75;2.00;;;;;19.30;100577.00;;;;13154251;22;20399;-73
2022/09/12 19:25:35;;;;;;;2.92;2.10;;;;;19.20;100575.00;;;;13128350;22;20797;-73
2022/09/12 19:30:36;;;;;;;4.47;2.10;;;;;19.10;100571.00;;;;13128326;22;20198;-73
2022/09/12 19:35:39;;;;;;;4.88;2.00;;;;;19.10;100570.00;;;;13133407;22;20189;-73
2022/09/12 19:40:41;;;;;;;5.30;2.40;;;;;19.00;100563.00;;;;13132232;22;20175;-73
2022/09/12 19:45:46;;;;;;;2.92;2.10;;;;;18.90;100547.00;;;;13152193;22;20825;-73
2022/09/12 19:50:48;;;;;;;7.22;2.58;;;;;19.00;100542.00;;;;13080523;22;20159;-73
2022/09/12 19:55:49;;;;;;;2.63;2.22;;;;;19.20;100536.00;;;;13131950;22;20239;-73
2022/09/12 20:00:50;;;;;;;3.58;2.15;;;;;19.20;100544.00;;;;13107133;22;20797;-73
2022/09/12 20:05:51;;;;;;;3.30;2.30;;;;;19.10;100547.00;;;;13080848;22;20179;-73
2022/09/12 20:10:55;;;;;;;3.90;2.42;;;;;18.90;100533.00;;;;13152615;22;20181;-73
2022/09/12 20:16:19;;;;;;;4.57;2.35;;;;;18.70;100529.00;;;;13106402;22;20205;-73
2022/09/12 20:21:29;;;;;;;3.22;2.30;;;;;18.60;100540.00;;;;13132584;22;20163;-73
2022/09/12 20:26:31;;;;;;;4.38;2.22;;;;;18.50;100557.00;;;;13106770;22;20283;-73
2022/09/12 20:31:34;;;;;;;4.18;2.20;;;;;18.40;100558.00;;;;13154157;22;20162;-73
2022/09/12 20:36:35;;;;;;;3.15;2.47;;;;;18.30;100556.00;;;;13127396;22;20254;-73
2022/09/12 20:41:36;;;;;;;2.33;2.13;;;;;18.20;100567.00;;;;13106662;22;20171;-73
2022/09/12 20:46:38;;;;;;;2.35;2.15;;;;;18.20;100577.00;;;;13080372;22;20170;-73
2022/09/12 20:51:40;;;;;;;2.50;2.17;;;;;18.20;100573.00;;;;13153668;22;20195;-73
2022/09/12 20:56:41;;;;;;;4.20;2.20;;;;;18.20;100571.00;;;;13106328;22;20191;-73
2022/09/12 21:01:42;;;;;;;4.40;2.40;;;;;18.20;100580.00;;;;13127828;22;20197;-73
2022/09/12 21:06:44;;;;;;;3.92;2.83;;;;;18.10;100592.00;;;;13131805;22;20712;-73
2022/09/12 21:11:45;;;;;;;2.63;2.42;;;;;17.90;100592.00;;;;13106716;22;20167;-73
2022/09/12 21:16:46;;;;;;;3.50;2.60;;;;;17.90;100600.00;;;;13128873;22;20257;-73
2022/09/12 21:21:47;;;;;;;4.68;2.40;;;;;17.90;100615.00;;;;13081205;22;20171;-73
2022/09/12 21:26:48;;;;;;;4.63;2.60;;;;;17.80;100609.00;;;;13106195;22;20245;-73
2022/09/12 21:31:50;;;;;;;4.88;2.72;;;;;17.80;100626.00;;;;13131987;22;20233;-73
2022/09/12 21:36:51;;;;;;;3.22;2.60;;;;;17.70;100623.00;;;;13078295;22;20225;-73
2022/09/12 21:41:52;;;;;;;4.32;2.50;;;;;17.80;100616.00;;;;13107004;22;20519;-73
2022/09/12 21:46:54;;;;;;;2.42;2.22;;;;;17.90;100620.00;;;;13104430;22;20204;-73
2022/09/12 21:51:55;;;;;;;5.60;2.72;;;;;18.00;100625.00;;;;13130603;22;20171;-73
2022/09/12 21:56:56;;;;;;;4.15;2.38;;;;;18.10;100620.00;;;;13101572;22;20301;-73
2022/09/12 22:01:57;;;;;;;5.30;3.42;;;;;18.20;100623.00;;;;13105300;22;20391;-73
2022/09/12 22:07:00;;;;;;;5.75;2.83;;;;;18.30;100619.00;;;;13079691;22;20170;-73
2022/09/12 22:12:02;;;;;;;4.72;2.88;;;;;18.30;100608.00;;;;13155554;22;20182;-73
2022/09/12 22:17:04;;;;;;;4.50;2.72;;;;;18.30;100599.00;;;;13055527;22;20190;-73
2022/09/12 22:27:26;;;;;;;4.18;2.50;;;;;18.30;100583.00;;;;13105275;22;20676;-73
2022/09/12 22:32:27;;;;;;;3.15;2.50;;;;;18.30;100594.00;;;;13129785;22;20174;-73
2022/09/12 22:37:28;;;;;;;4.97;2.60;;;;;18.30;100598.00;;;;13107611;22;20839;-73
2022/09/12 22:42:30;;;;;;;6.50;3.22;;;;;18.30;100580.00;;;;13133838;22;20674;-73
2022/09/12 22:47:31;;;;;;;5.57;3.10;;;;;18.20;100576.00;;;;13081075;22;20167;-73
2022/09/12 22:52:32;;;;;;;3.70;2.80;;;;;18.20;100562.00;;;;13129066;22;20167;-73
2022/09/12 22:57:33;;;;;;;3.47;2.63;;;;;18.10;100564.00;;;;13153144;22;20187;-73
2022/09/12 23:02:34;;;;;;;3.88;2.97;;;;;18.10;100568.00;;;;13155593;22;20159;-73
2022/09/12 23:07:36;;;;;;;2.83;2.35;;;;;18.10;100588.00;;;;13156993;22;20641;-73
2022/09/12 23:12:37;;;;;;;7.88;2.80;;;;;18.10;100598.00;;;;13107467;22;20190;-73
2022/09/12 23:17:38;;;;;;;7.43;3.70;;;;;18.20;100595.00;;;;13106775;22;20572;-73
2022/09/12 23:22:40;;;;;;;4.60;2.70;;;;;18.30;100583.00;;;;13153645;22;20163;-73
2022/09/12 23:27:42;;;;;;;3.97;2.00;;;;;18.40;100579.00;;;;13133308;22;20178;-73
2022/09/12 23:32:43;;;;;;;3.53;2.50;;;;;18.40;100574.00;;;;13154282;22;20162;-73
2022/09/12 23:37:45;;;;;;;5.63;3.47;;;;;18.30;100570.00;;;;13155009;22;20189;-73
2022/09/12 23:42:46;;;;;;;5.75;2.35;;;;;18.30;100572.00;;;;13129130;22;20159;-73
2022/09/12 23:47:48;;;;;;;3.92;2.35;;;;;18.30;100560.00;;;;13129974;22;20258;-73
2022/09/12 23:52:49;;;;;;;7.55;2.47;;;;;18.30;100556.00;;;;13105633;22;20170;-73
2022/09/12 23:57:50;;;;;;;1.98;1.70;;;;;18.40;100557.00;;;;13133062;22;20191;-73
